FDX788B CYUL-KJFK
Flight info
| Callsign | FDX788B |
|---|---|
| Flight time | 1h 2m |
| Altitude | 34000 |
| Route | FAWNS DCT BUGSY DCT NIPPY DCT PONCT PUCKY1 |
| Aircraft | MD11/H-SDE1E2E3FGHIJ2J3J4J5M1RWXY/LB1D1 |
Departure
| Time | 2026-05-06 23:49 |
|---|---|
| Airport | Montreal / Pierre Elliott Trudeau International Airport (CYUL) |
Arrival
| Time | 2026-05-07 00:51 |
|---|---|
| Airport | John F. Kennedy International Airport (KJFK) |
| Time | Latitude | Longitude | Altitude | Speed | Heading |
|---|---|---|---|---|---|
| 2026-05-06 23:18 | 45.46487 | -73.75116 | 113 ft | 0 kts | 268° |
| 2026-05-06 23:34 | 45.46487 | -73.75114 | 113 ft | 1 kts | 268° |
| 2026-05-06 23:35 | 45.46487 | -73.75103 | 113 ft | 2 kts | 268° |
| 2026-05-06 23:35 | 45.46489 | -73.75083 | 113 ft | 2 kts | 253° |
| 2026-05-06 23:35 | 45.46494 | -73.75063 | 113 ft | 2 kts | 241° |
| 2026-05-06 23:35 | 45.46502 | -73.75046 | 113 ft | 2 kts | 229° |
| 2026-05-06 23:36 | 45.46512 | -73.75032 | 113 ft | 2 kts | 218° |
| 2026-05-06 23:36 | 45.46524 | -73.75021 | 113 ft | 2 kts | 206° |
| 2026-05-06 23:36 | 45.46538 | -73.75013 | 113 ft | 2 kts | 194° |
| 2026-05-06 23:36 | 45.46552 | -73.75010 | 113 ft | 2 kts | 181° |
| 2026-05-06 23:37 | 45.46560 | -73.75010 | 113 ft | 0 kts | 176° |
| 2026-05-06 23:39 | 45.46556 | -73.75010 | 113 ft | 1 kts | 176° |
| 2026-05-06 23:40 | 45.46542 | -73.75008 | 113 ft | 3 kts | 176° |
| 2026-05-06 23:40 | 45.46500 | -73.75005 | 113 ft | 8 kts | 176° |
| 2026-05-06 23:40 | 45.46435 | -73.75000 | 113 ft | 12 kts | 176° |
| 2026-05-06 23:40 | 45.46348 | -73.74989 | 113 ft | 13 kts | 157° |
| 2026-05-06 23:41 | 45.46318 | -73.74900 | 113 ft | 10 kts | 92° |
| 2026-05-06 23:41 | 45.46318 | -73.74790 | 113 ft | 12 kts | 88° |
| 2026-05-06 23:41 | 45.46321 | -73.74661 | 113 ft | 14 kts | 88° |
| 2026-05-06 23:41 | 45.46325 | -73.74512 | 113 ft | 15 kts | 86° |
| 2026-05-06 23:42 | 45.46331 | -73.74348 | 113 ft | 17 kts | 87° |
| 2026-05-06 23:42 | 45.46336 | -73.74175 | 113 ft | 18 kts | 87° |
| 2026-05-06 23:42 | 45.46341 | -73.73981 | 110 ft | 21 kts | 88° |
| 2026-05-06 23:42 | 45.46365 | -73.73776 | 110 ft | 21 kts | 58° |
| 2026-05-06 23:43 | 45.46469 | -73.73612 | 110 ft | 23 kts | 43° |
| 2026-05-06 23:43 | 45.46589 | -73.73453 | 112 ft | 23 kts | 42° |
| 2026-05-06 23:43 | 45.46711 | -73.73298 | 113 ft | 24 kts | 41° |
| 2026-05-06 23:43 | 45.46836 | -73.73128 | 113 ft | 25 kts | 44° |
| 2026-05-06 23:44 | 45.46965 | -73.72962 | 116 ft | 24 kts | 41° |
| 2026-05-06 23:44 | 45.47096 | -73.72791 | 116 ft | 26 kts | 43° |
| 2026-05-06 23:44 | 45.47228 | -73.72619 | 120 ft | 25 kts | 42° |
| 2026-05-06 23:44 | 45.47360 | -73.72450 | 124 ft | 25 kts | 43° |
| 2026-05-06 23:45 | 45.47486 | -73.72281 | 127 ft | 24 kts | 43° |
| 2026-05-06 23:45 | 45.47610 | -73.72115 | 130 ft | 24 kts | 43° |
| 2026-05-06 23:45 | 45.47741 | -73.71943 | 132 ft | 24 kts | 43° |
| 2026-05-06 23:45 | 45.47807 | -73.71820 | 133 ft | 10 kts | 93° |
| 2026-05-06 23:46 | 45.47778 | -73.71741 | 135 ft | 9 kts | 130° |
| 2026-05-06 23:46 | 45.47772 | -73.71731 | 135 ft | 0 kts | 130° |
| 2026-05-06 23:47 | 45.47772 | -73.71730 | 135 ft | 0 kts | 130° |
| 2026-05-06 23:47 | 45.47754 | -73.71700 | 136 ft | 8 kts | 130° |
| 2026-05-06 23:47 | 45.47702 | -73.71637 | 137 ft | 10 kts | 178° |
| 2026-05-06 23:48 | 45.47639 | -73.71684 | 136 ft | 13 kts | 218° |
| 2026-05-06 23:48 | 45.47417 | -73.71962 | 131 ft | 81 kts | 221° |
| 2026-05-06 23:48 | 45.46818 | -73.72753 | 117 ft | 150 kts | 221° |
| 2026-05-06 23:48 | 45.45943 | -73.73876 | 298 ft | 181 kts | 222° |
| 2026-05-06 23:49 | 45.44975 | -73.75110 | 836 ft | 190 kts | 221° |
| 2026-05-06 23:49 | 45.44047 | -73.76270 | 1826 ft | 179 kts | 222° |
| 2026-05-06 23:49 | 45.43115 | -73.77395 | 2645 ft | 176 kts | 221° |
| 2026-05-06 23:49 | 45.42181 | -73.78489 | 3338 ft | 179 kts | 222° |
| 2026-05-06 23:50 | 45.41156 | -73.79675 | 3632 ft | 205 kts | 221° |
| 2026-05-06 23:50 | 45.38412 | -73.81914 | 4559 ft | 253 kts | 197° |
| 2026-05-06 23:50 | 45.36662 | -73.82500 | 5383 ft | 266 kts | 195° |
| 2026-05-06 23:51 | 45.34865 | -73.83147 | 6267 ft | 275 kts | 199° |
| 2026-05-06 23:51 | 45.33020 | -73.83935 | 7262 ft | 281 kts | 201° |
| 2026-05-06 23:51 | 45.31184 | -73.84795 | 8397 ft | 281 kts | 202° |
| 2026-05-06 23:51 | 45.29359 | -73.85685 | 9582 ft | 279 kts | 202° |
| 2026-05-06 23:52 | 45.27553 | -73.86576 | 10591 ft | 284 kts | 203° |
| 2026-05-06 23:52 | 45.25601 | -73.87560 | 10901 ft | 315 kts | 203° |
| 2026-05-06 23:52 | 45.23427 | -73.88650 | 11136 ft | 346 kts | 203° |
| 2026-05-06 23:52 | 45.21081 | -73.89820 | 11343 ft | 375 kts | 202° |
| 2026-05-06 23:53 | 45.18573 | -73.91061 | 12054 ft | 388 kts | 202° |
| 2026-05-06 23:53 | 45.16013 | -73.92329 | 12936 ft | 396 kts | 202° |
| 2026-05-06 23:53 | 45.13405 | -73.93623 | 13873 ft | 401 kts | 202° |
| 2026-05-06 23:53 | 45.10771 | -73.94933 | 14815 ft | 404 kts | 203° |
| 2026-05-06 23:54 | 45.08129 | -73.96255 | 15762 ft | 407 kts | 202° |
| 2026-05-06 23:54 | 45.05458 | -73.97588 | 16696 ft | 409 kts | 202° |
| 2026-05-06 23:54 | 45.02777 | -73.98921 | 17545 ft | 412 kts | 202° |
| 2026-05-06 23:54 | 45.00111 | -74.00250 | 18400 ft | 413 kts | 202° |
| 2026-05-06 23:55 | 44.97398 | -74.01598 | 19171 ft | 417 kts | 202° |
| 2026-05-06 23:55 | 44.94634 | -74.02975 | 19946 ft | 421 kts | 203° |
| 2026-05-06 23:55 | 44.91903 | -74.04339 | 20614 ft | 426 kts | 203° |
| 2026-05-06 23:55 | 44.89067 | -74.05753 | 21289 ft | 431 kts | 202° |
| 2026-05-06 23:56 | 44.86258 | -74.07153 | 21964 ft | 436 kts | 203° |
| 2026-05-06 23:56 | 44.83387 | -74.08583 | 22635 ft | 440 kts | 203° |
| 2026-05-06 23:56 | 44.80494 | -74.10025 | 23272 ft | 445 kts | 203° |
| 2026-05-06 23:56 | 44.77562 | -74.11440 | 23922 ft | 450 kts | 200° |
| 2026-05-06 23:57 | 44.74524 | -74.12534 | 24503 ft | 457 kts | 195° |
| 2026-05-06 23:57 | 44.71370 | -74.13187 | 25102 ft | 465 kts | 189° |
| 2026-05-06 23:57 | 44.68120 | -74.13387 | 25655 ft | 473 kts | 184° |
| 2026-05-06 23:57 | 44.64827 | -74.13030 | 26467 ft | 476 kts | 178° |
| 2026-05-06 23:58 | 44.61573 | -74.12439 | 27548 ft | 470 kts | 177° |
| 2026-05-06 23:58 | 44.58354 | -74.11852 | 28469 ft | 467 kts | 177° |
| 2026-05-06 23:58 | 44.55190 | -74.11298 | 29333 ft | 463 kts | 178° |
| 2026-05-06 23:58 | 44.52016 | -74.10749 | 30174 ft | 460 kts | 178° |
| 2026-05-06 23:59 | 44.48824 | -74.10201 | 30859 ft | 458 kts | 178° |
| 2026-05-06 23:59 | 44.45709 | -74.09662 | 31447 ft | 456 kts | 178° |
| 2026-05-06 23:59 | 44.42548 | -74.09130 | 31933 ft | 457 kts | 179° |
| 2026-05-06 23:59 | 44.39395 | -74.08607 | 32396 ft | 457 kts | 179° |
| 2026-05-07 00:00 | 44.36243 | -74.08083 | 32861 ft | 457 kts | 180° |
| 2026-05-07 00:00 | 44.33133 | -74.07558 | 33252 ft | 456 kts | 180° |
| 2026-05-07 00:00 | 44.29956 | -74.07022 | 33588 ft | 456 kts | 181° |
| 2026-05-07 00:00 | 44.27893 | -74.06679 | 33742 ft | 459 kts | 181° |
| 2026-05-07 00:01 | 44.20478 | -74.05450 | 33779 ft | 460 kts | 181° |
| 2026-05-07 00:01 | 44.14114 | -74.04378 | 33801 ft | 461 kts | 182° |
| 2026-05-07 00:02 | 44.07751 | -74.03317 | 33794 ft | 463 kts | 182° |
| 2026-05-07 00:02 | 44.01373 | -74.02247 | 33799 ft | 463 kts | 183° |
| 2026-05-07 00:03 | 43.94994 | -74.01176 | 33820 ft | 461 kts | 183° |
| 2026-05-07 00:03 | 43.88650 | -74.00112 | 33824 ft | 462 kts | 183° |
| 2026-05-07 00:04 | 43.82280 | -73.99049 | 33833 ft | 463 kts | 184° |
| 2026-05-07 00:04 | 43.75860 | -73.97984 | 33827 ft | 463 kts | 184° |
| 2026-05-07 00:05 | 43.69475 | -73.96939 | 33831 ft | 464 kts | 184° |
| 2026-05-07 00:05 | 43.63091 | -73.95878 | 33826 ft | 465 kts | 184° |
| 2026-05-07 00:06 | 43.56691 | -73.94826 | 33826 ft | 464 kts | 184° |
| 2026-05-07 00:06 | 43.50296 | -73.93761 | 33824 ft | 465 kts | 185° |
| 2026-05-07 00:07 | 43.43846 | -73.92705 | 33823 ft | 467 kts | 185° |
| 2026-05-07 00:07 | 43.37414 | -73.91644 | 33817 ft | 468 kts | 185° |
| 2026-05-07 00:08 | 43.30943 | -73.90564 | 33812 ft | 468 kts | 185° |
| 2026-05-07 00:08 | 43.24517 | -73.89510 | 33830 ft | 469 kts | 185° |
| 2026-05-07 00:09 | 43.18017 | -73.88439 | 33838 ft | 470 kts | 186° |
| 2026-05-07 00:09 | 43.11559 | -73.87368 | 33841 ft | 469 kts | 186° |
| 2026-05-07 00:10 | 43.05064 | -73.86295 | 33834 ft | 471 kts | 186° |
| 2026-05-07 00:10 | 42.98588 | -73.85229 | 33849 ft | 472 kts | 186° |
| 2026-05-07 00:11 | 42.92079 | -73.84152 | 33835 ft | 472 kts | 186° |
| 2026-05-07 00:11 | 42.85575 | -73.83079 | 33833 ft | 474 kts | 186° |
| 2026-05-07 00:12 | 42.79032 | -73.82025 | 33836 ft | 472 kts | 187° |
| 2026-05-07 00:12 | 42.72527 | -73.81335 | 33820 ft | 463 kts | 192° |
| 2026-05-07 00:13 | 42.66180 | -73.81334 | 33826 ft | 459 kts | 194° |
| 2026-05-07 00:13 | 42.59801 | -73.81409 | 33837 ft | 460 kts | 194° |
| 2026-05-07 00:14 | 42.53371 | -73.81461 | 33832 ft | 459 kts | 194° |
| 2026-05-07 00:14 | 42.47024 | -73.81503 | 33828 ft | 457 kts | 194° |
| 2026-05-07 00:15 | 42.40672 | -73.81550 | 33828 ft | 459 kts | 194° |
| 2026-05-07 00:15 | 42.34253 | -73.81591 | 33805 ft | 461 kts | 194° |
| 2026-05-07 00:16 | 42.27864 | -73.81635 | 33810 ft | 460 kts | 194° |
| 2026-05-07 00:16 | 42.21473 | -73.81673 | 33802 ft | 461 kts | 194° |
| 2026-05-07 00:17 | 42.15057 | -73.81722 | 33805 ft | 464 kts | 195° |
| 2026-05-07 00:17 | 42.08610 | -73.81767 | 33796 ft | 463 kts | 194° |
| 2026-05-07 00:18 | 42.02369 | -73.82365 | 33823 ft | 439 kts | 205° |
| 2026-05-07 00:18 | 41.99455 | -73.83396 | 33816 ft | 424 kts | 212° |
| 2026-05-07 00:18 | 41.96775 | -73.84847 | 33529 ft | 412 kts | 219° |
| 2026-05-07 00:19 | 41.94289 | -73.86675 | 33023 ft | 406 kts | 222° |
| 2026-05-07 00:19 | 41.91826 | -73.88572 | 32480 ft | 407 kts | 222° |
| 2026-05-07 00:19 | 41.89394 | -73.90418 | 31905 ft | 409 kts | 221° |
| 2026-05-07 00:19 | 41.86921 | -73.92273 | 31300 ft | 410 kts | 221° |
| 2026-05-07 00:20 | 41.84430 | -73.94138 | 30688 ft | 412 kts | 220° |
| 2026-05-07 00:20 | 41.81917 | -73.96006 | 30129 ft | 416 kts | 220° |
| 2026-05-07 00:20 | 41.79396 | -73.97883 | 29514 ft | 418 kts | 220° |
| 2026-05-07 00:20 | 41.76834 | -73.99777 | 28847 ft | 419 kts | 219° |
| 2026-05-07 00:21 | 41.74256 | -74.01559 | 27876 ft | 428 kts | 215° |
| 2026-05-07 00:21 | 41.71429 | -74.02969 | 27013 ft | 445 kts | 208° |
| 2026-05-07 00:21 | 41.68390 | -74.03921 | 26308 ft | 461 kts | 200° |
| 2026-05-07 00:21 | 41.65185 | -74.04427 | 25413 ft | 468 kts | 197° |
| 2026-05-07 00:22 | 41.61935 | -74.04853 | 24688 ft | 466 kts | 197° |
| 2026-05-07 00:22 | 41.58743 | -74.05285 | 23728 ft | 464 kts | 197° |
| 2026-05-07 00:22 | 41.55563 | -74.05739 | 22925 ft | 459 kts | 197° |
| 2026-05-07 00:22 | 41.52428 | -74.06202 | 22141 ft | 453 kts | 196° |
| 2026-05-07 00:23 | 41.49297 | -74.06675 | 21365 ft | 448 kts | 195° |
| 2026-05-07 00:23 | 41.46250 | -74.07137 | 20654 ft | 441 kts | 195° |
| 2026-05-07 00:23 | 41.43224 | -74.07600 | 20062 ft | 431 kts | 195° |
| 2026-05-07 00:23 | 41.40339 | -74.08033 | 19839 ft | 413 kts | 195° |
| 2026-05-07 00:24 | 41.37593 | -74.08639 | 19778 ft | 386 kts | 202° |
| 2026-05-07 00:24 | 41.35122 | -74.09680 | 19773 ft | 361 kts | 210° |
| 2026-05-07 00:24 | 41.32913 | -74.11058 | 19809 ft | 340 kts | 218° |
| 2026-05-07 00:24 | 41.30948 | -74.12716 | 19812 ft | 329 kts | 221° |
| 2026-05-07 00:25 | 41.29084 | -74.14353 | 19800 ft | 321 kts | 221° |
| 2026-05-07 00:25 | 41.27226 | -74.15966 | 19801 ft | 314 kts | 221° |
| 2026-05-07 00:25 | 41.25412 | -74.17529 | 19819 ft | 312 kts | 221° |
| 2026-05-07 00:25 | 41.24187 | -74.18576 | 19821 ft | 312 kts | 221° |
| 2026-05-07 00:26 | 41.21735 | -74.20686 | 19102 ft | 316 kts | 220° |
| 2026-05-07 00:26 | 41.19909 | -74.22245 | 18825 ft | 310 kts | 220° |
| 2026-05-07 00:26 | 41.18096 | -74.23787 | 18829 ft | 311 kts | 220° |
| 2026-05-07 00:26 | 41.16270 | -74.25340 | 18827 ft | 314 kts | 220° |
| 2026-05-07 00:27 | 41.14453 | -74.26891 | 18817 ft | 315 kts | 220° |
| 2026-05-07 00:27 | 41.12610 | -74.28459 | 18826 ft | 315 kts | 220° |
| 2026-05-07 00:27 | 41.10762 | -74.30026 | 18822 ft | 315 kts | 220° |
| 2026-05-07 00:27 | 41.08888 | -74.31596 | 18819 ft | 317 kts | 217° |
| 2026-05-07 00:28 | 41.06829 | -74.32700 | 18823 ft | 328 kts | 201° |
| 2026-05-07 00:28 | 41.04534 | -74.32966 | 18806 ft | 336 kts | 185° |
| 2026-05-07 00:28 | 41.02241 | -74.32319 | 18827 ft | 346 kts | 169° |
| 2026-05-07 00:28 | 41.00087 | -74.30746 | 18840 ft | 359 kts | 150° |
| 2026-05-07 00:29 | 40.98345 | -74.28373 | 18832 ft | 372 kts | 132° |
| 2026-05-07 00:29 | 40.96954 | -74.25434 | 18838 ft | 378 kts | 127° |
| 2026-05-07 00:30 | 40.92867 | -74.16569 | 18822 ft | 379 kts | 130° |
| 2026-05-07 00:30 | 40.91300 | -74.13955 | 18690 ft | 368 kts | 147° |
| 2026-05-07 00:30 | 40.89326 | -74.12159 | 18422 ft | 347 kts | 163° |
| 2026-05-07 00:30 | 40.87217 | -74.10857 | 18155 ft | 336 kts | 166° |
| 2026-05-07 00:31 | 40.85109 | -74.09688 | 17880 ft | 330 kts | 167° |
| 2026-05-07 00:31 | 40.83007 | -74.08553 | 17608 ft | 324 kts | 168° |
| 2026-05-07 00:31 | 40.80928 | -74.07431 | 17352 ft | 320 kts | 168° |
| 2026-05-07 00:31 | 40.78900 | -74.06327 | 17088 ft | 316 kts | 167° |
| 2026-05-07 00:32 | 40.76879 | -74.05227 | 16808 ft | 313 kts | 167° |
| 2026-05-07 00:32 | 40.74876 | -74.04138 | 16562 ft | 312 kts | 167° |
| 2026-05-07 00:32 | 40.72877 | -74.03051 | 16311 ft | 313 kts | 167° |
| 2026-05-07 00:32 | 40.70870 | -74.01960 | 16062 ft | 312 kts | 167° |
| 2026-05-07 00:33 | 40.68854 | -74.00864 | 15802 ft | 312 kts | 167° |
| 2026-05-07 00:33 | 40.66891 | -73.99787 | 15544 ft | 312 kts | 167° |
| 2026-05-07 00:33 | 40.64891 | -73.98689 | 15297 ft | 311 kts | 167° |
| 2026-05-07 00:33 | 40.62904 | -73.97608 | 15053 ft | 309 kts | 167° |
| 2026-05-07 00:34 | 40.60937 | -73.96542 | 14806 ft | 307 kts | 168° |
| 2026-05-07 00:34 | 40.58963 | -73.95460 | 14557 ft | 304 kts | 167° |
| 2026-05-07 00:34 | 40.57045 | -73.94402 | 14310 ft | 302 kts | 167° |
| 2026-05-07 00:34 | 40.55102 | -73.93329 | 14062 ft | 300 kts | 167° |
| 2026-05-07 00:35 | 40.53196 | -73.92283 | 13812 ft | 300 kts | 167° |
| 2026-05-07 00:35 | 40.51280 | -73.91232 | 13572 ft | 298 kts | 167° |
| 2026-05-07 00:35 | 40.49363 | -73.90189 | 13342 ft | 297 kts | 167° |
| 2026-05-07 00:35 | 40.47441 | -73.89151 | 13098 ft | 297 kts | 167° |
| 2026-05-07 00:36 | 40.45547 | -73.88126 | 12984 ft | 294 kts | 167° |
| 2026-05-07 00:36 | 40.43744 | -73.86796 | 12998 ft | 310 kts | 147° |
| 2026-05-07 00:36 | 40.42334 | -73.84549 | 12790 ft | 328 kts | 125° |
| 2026-05-07 00:36 | 40.41349 | -73.81816 | 12537 ft | 332 kts | 118° |
| 2026-05-07 00:37 | 40.40483 | -73.79035 | 12229 ft | 333 kts | 117° |
| 2026-05-07 00:37 | 40.39616 | -73.76204 | 11801 ft | 332 kts | 117° |
| 2026-05-07 00:37 | 40.38771 | -73.73430 | 11399 ft | 328 kts | 117° |
| 2026-05-07 00:37 | 40.37930 | -73.70677 | 10997 ft | 324 kts | 117° |
| 2026-05-07 00:38 | 40.37106 | -73.67998 | 10595 ft | 321 kts | 117° |
| 2026-05-07 00:38 | 40.36271 | -73.65273 | 10179 ft | 318 kts | 117° |
| 2026-05-07 00:38 | 40.35635 | -73.62558 | 9754 ft | 320 kts | 99° |
| 2026-05-07 00:38 | 40.35772 | -73.59658 | 9335 ft | 319 kts | 73° |
| 2026-05-07 00:39 | 40.36741 | -73.57132 | 8916 ft | 310 kts | 45° |
| 2026-05-07 00:39 | 40.38311 | -73.55263 | 8511 ft | 299 kts | 31° |
| 2026-05-07 00:39 | 40.39987 | -73.53749 | 8115 ft | 295 kts | 28° |
| 2026-05-07 00:39 | 40.41695 | -73.52290 | 7701 ft | 293 kts | 27° |
| 2026-05-07 00:40 | 40.43404 | -73.50851 | 7297 ft | 290 kts | 27° |
| 2026-05-07 00:40 | 40.45181 | -73.49712 | 6859 ft | 278 kts | 7° |
| 2026-05-07 00:40 | 40.47039 | -73.49299 | 6478 ft | 269 kts | 359° |
| 2026-05-07 00:40 | 40.48889 | -73.49072 | 6077 ft | 265 kts | 357° |
| 2026-05-07 00:41 | 40.50714 | -73.48891 | 5689 ft | 262 kts | 357° |
| 2026-05-07 00:41 | 40.52519 | -73.48724 | 5291 ft | 262 kts | 357° |
| 2026-05-07 00:41 | 40.54378 | -73.48558 | 4907 ft | 270 kts | 357° |
| 2026-05-07 00:41 | 40.56268 | -73.48396 | 4519 ft | 276 kts | 357° |
| 2026-05-07 00:42 | 40.58163 | -73.48245 | 4137 ft | 275 kts | 357° |
| 2026-05-07 00:42 | 40.60080 | -73.48106 | 3991 ft | 273 kts | 357° |
| 2026-05-07 00:42 | 40.61983 | -73.47974 | 3984 ft | 273 kts | 357° |
| 2026-05-07 00:42 | 40.63885 | -73.47844 | 3827 ft | 274 kts | 357° |
| 2026-05-07 00:43 | 40.65762 | -73.47710 | 3542 ft | 271 kts | 357° |
| 2026-05-07 00:43 | 40.67648 | -73.47576 | 3280 ft | 270 kts | 357° |
| 2026-05-07 00:43 | 40.69499 | -73.47452 | 3115 ft | 269 kts | 357° |
| 2026-05-07 00:43 | 40.71365 | -73.47336 | 2976 ft | 269 kts | 357° |
| 2026-05-07 00:44 | 40.73241 | -73.47221 | 2990 ft | 270 kts | 357° |
| 2026-05-07 00:44 | 40.75111 | -73.47222 | 2970 ft | 261 kts | 345° |
| 2026-05-07 00:44 | 40.76716 | -73.48044 | 2712 ft | 237 kts | 315° |
| 2026-05-07 00:44 | 40.77767 | -73.49543 | 2478 ft | 217 kts | 300° |
| 2026-05-07 00:45 | 40.78576 | -73.51146 | 2234 ft | 207 kts | 297° |
| 2026-05-07 00:45 | 40.79340 | -73.52753 | 2007 ft | 204 kts | 297° |
| 2026-05-07 00:45 | 40.80053 | -73.54329 | 1978 ft | 203 kts | 288° |
| 2026-05-07 00:45 | 40.80453 | -73.56094 | 1982 ft | 201 kts | 279° |
| 2026-05-07 00:46 | 40.80718 | -73.57873 | 1973 ft | 200 kts | 277° |
| 2026-05-07 00:46 | 40.80671 | -73.59669 | 1966 ft | 197 kts | 250° |
| 2026-05-07 00:46 | 40.80067 | -73.61246 | 1981 ft | 190 kts | 239° |
| 2026-05-07 00:46 | 40.79385 | -73.62631 | 1978 ft | 178 kts | 237° |
| 2026-05-07 00:47 | 40.78637 | -73.63885 | 1992 ft | 172 kts | 226° |
| 2026-05-07 00:47 | 40.77728 | -73.64883 | 1992 ft | 172 kts | 219° |
| 2026-05-07 00:47 | 40.76746 | -73.65782 | 1983 ft | 173 kts | 217° |
| 2026-05-07 00:47 | 40.75764 | -73.66615 | 1990 ft | 171 kts | 216° |
| 2026-05-07 00:48 | 40.74757 | -73.67443 | 1974 ft | 171 kts | 215° |
| 2026-05-07 00:48 | 40.73783 | -73.68221 | 1963 ft | 158 kts | 215° |
| 2026-05-07 00:48 | 40.72882 | -73.68937 | 1893 ft | 153 kts | 214° |
| 2026-05-07 00:48 | 40.72012 | -73.69624 | 1712 ft | 149 kts | 214° |
| 2026-05-07 00:49 | 40.71126 | -73.70324 | 1525 ft | 151 kts | 214° |
| 2026-05-07 00:49 | 40.70282 | -73.70988 | 1334 ft | 150 kts | 214° |
| 2026-05-07 00:49 | 40.69481 | -73.71620 | 1125 ft | 146 kts | 213° |
| 2026-05-07 00:49 | 40.68734 | -73.72205 | 896 ft | 149 kts | 212° |
| 2026-05-07 00:50 | 40.67887 | -73.72865 | 741 ft | 153 kts | 210° |
| 2026-05-07 00:50 | 40.66305 | -73.74046 | 403 ft | 152 kts | 213° |
| 2026-05-07 00:50 | 40.65403 | -73.74799 | 184 ft | 149 kts | 210° |
| 2026-05-07 00:51 | 40.64259 | -73.75664 | 19 ft | 143 kts | 209° |
| 2026-05-07 00:51 | 40.63635 | -73.76163 | 18 ft | 68 kts | 212° |
| 2026-05-07 00:51 | 40.63303 | -73.76430 | 18 ft | 49 kts | 211° |
| 2026-05-07 00:51 | 40.63054 | -73.76640 | 15 ft | 40 kts | 223° |
| 2026-05-07 00:52 | 40.62948 | -73.76859 | 15 ft | 23 kts | 251° |
| 2026-05-07 00:52 | 40.62957 | -73.77015 | 15 ft | 16 kts | 296° |
| 2026-05-07 00:52 | 40.63010 | -73.77157 | 15 ft | 17 kts | 303° |
| 2026-05-07 00:52 | 40.63078 | -73.77293 | 15 ft | 18 kts | 303° |
| 2026-05-07 00:53 | 40.63145 | -73.77441 | 15 ft | 14 kts | 300° |
| 2026-05-07 00:53 | 40.63149 | -73.77449 | 15 ft | 0 kts | 309° |
| 2026-05-07 00:53 | 40.63180 | -73.77463 | 15 ft | 10 kts | 5° |
| 2026-05-07 00:53 | 40.63278 | -73.77395 | 15 ft | 22 kts | 33° |
| 2026-05-07 00:54 | 40.63424 | -73.77270 | 17 ft | 25 kts | 32° |
| 2026-05-07 00:54 | 40.63577 | -73.77156 | 18 ft | 25 kts | 27° |
| 2026-05-07 00:54 | 40.63733 | -73.77037 | 18 ft | 26 kts | 31° |
| 2026-05-07 00:54 | 40.63893 | -73.76906 | 18 ft | 27 kts | 33° |
| 2026-05-07 00:55 | 40.64057 | -73.76774 | 18 ft | 28 kts | 30° |
| 2026-05-07 00:55 | 40.64227 | -73.76641 | 18 ft | 29 kts | 31° |
| 2026-05-07 00:55 | 40.64402 | -73.76504 | 18 ft | 29 kts | 31° |
| 2026-05-07 00:55 | 40.64540 | -73.76404 | 18 ft | 16 kts | 11° |
| 2026-05-07 00:56 | 40.64623 | -73.76485 | 18 ft | 19 kts | 301° |
| 2026-05-07 00:56 | 40.64703 | -73.76662 | 18 ft | 25 kts | 299° |